sensor_id;sensor_type;location;lat;lon;timestamp;P1;durP1;ratioP1;P2;durP2;ratioP2
5813;SDS011;2933;52.302;8.134;2023-04-01T00:00:08;9.37;;;5.80;;
5813;SDS011;2933;52.302;8.134;2023-04-01T00:05:12;8.93;;;6.57;;
5813;SDS011;2933;52.302;8.134;2023-04-01T00:10:14;8.37;;;5.77;;
5813;SDS011;2933;52.302;8.134;2023-04-01T00:15:15;11.27;;;5.87;;
5813;SDS011;2933;52.302;8.134;2023-04-01T00:20:18;7.60;;;5.77;;
5813;SDS011;2933;52.302;8.134;2023-04-01T00:25:20;7.37;;;6.60;;
5813;SDS011;2933;52.302;8.134;2023-04-01T00:30:22;8.10;;;6.10;;
5813;SDS011;2933;52.302;8.134;2023-04-01T00:35:25;7.93;;;6.00;;
5813;SDS011;2933;52.302;8.134;2023-04-01T00:40:28;6.17;;;5.57;;
5813;SDS011;2933;52.302;8.134;2023-04-01T00:45:32;8.80;;;5.93;;
5813;SDS011;2933;52.302;8.134;2023-04-01T00:50:37;5.47;;;4.93;;
5813;SDS011;2933;52.302;8.134;2023-04-01T00:55:42;6.40;;;4.53;;
5813;SDS011;2933;52.302;8.134;2023-04-01T01:00:50;4.50;;;4.20;;
5813;SDS011;2933;52.302;8.134;2023-04-01T01:05:58;7.30;;;4.63;;
5813;SDS011;2933;52.302;8.134;2023-04-01T01:11:09;5.17;;;4.53;;
5813;SDS011;2933;52.302;8.134;2023-04-01T01:16:13;5.30;;;4.00;;
5813;SDS011;2933;52.302;8.134;2023-04-01T01:21:38;4.27;;;3.77;;
5813;SDS011;2933;52.302;8.134;2023-04-01T01:26:57;5.90;;;3.60;;
5813;SDS011;2933;52.302;8.134;2023-04-01T01:32:05;4.77;;;4.43;;
5813;SDS011;2933;52.302;8.134;2023-04-01T01:37:17;5.33;;;4.07;;
5813;SDS011;2933;52.302;8.134;2023-04-01T01:42:22;5.37;;;4.10;;
5813;SDS011;2933;52.302;8.134;2023-04-01T01:47:26;4.43;;;4.10;;
5813;SDS011;2933;52.302;8.134;2023-04-01T01:52:31;4.27;;;3.97;;
5813;SDS011;2933;52.302;8.134;2023-04-01T01:57:33;4.23;;;3.77;;
5813;SDS011;2933;52.302;8.134;2023-04-01T02:02:37;4.40;;;4.03;;
5813;SDS011;2933;52.302;8.134;2023-04-01T02:07:41;3.80;;;3.40;;
5813;SDS011;2933;52.302;8.134;2023-04-01T02:12:47;3.93;;;3.73;;
5813;SDS011;2933;52.302;8.134;2023-04-01T02:17:51;3.43;;;3.20;;
5813;SDS011;2933;52.302;8.134;2023-04-01T02:22:54;3.73;;;3.47;;
5813;SDS011;2933;52.302;8.134;2023-04-01T02:27:59;3.67;;;3.40;;
5813;SDS011;2933;52.302;8.134;2023-04-01T02:33:02;3.97;;;3.67;;
5813;SDS011;2933;52.302;8.134;2023-04-01T02:38:06;3.27;;;3.03;;
5813;SDS011;2933;52.302;8.134;2023-04-01T02:43:07;3.20;;;3.00;;
5813;SDS011;2933;52.302;8.134;2023-04-01T02:48:09;3.73;;;2.80;;
5813;SDS011;2933;52.302;8.134;2023-04-01T02:53:12;2.63;;;2.43;;
5813;SDS011;2933;52.302;8.134;2023-04-01T02:58:13;4.17;;;2.70;;
5813;SDS011;2933;52.302;8.134;2023-04-01T03:03:15;3.30;;;3.10;;
5813;SDS011;2933;52.302;8.134;2023-04-01T03:08:18;2.50;;;2.40;;
5813;SDS011;2933;52.302;8.134;2023-04-01T03:13:19;3.60;;;2.37;;
5813;SDS011;2933;52.302;8.134;2023-04-01T03:18:21;3.30;;;3.00;;
5813;SDS011;2933;52.302;8.134;2023-04-01T03:23:24;3.30;;;3.00;;
5813;SDS011;2933;52.302;8.134;2023-04-01T03:28:26;3.40;;;3.20;;
5813;SDS011;2933;52.302;8.134;2023-04-01T03:33:27;3.00;;;2.90;;
5813;SDS011;2933;52.302;8.134;2023-04-01T03:38:30;3.07;;;2.97;;
5813;SDS011;2933;52.302;8.134;2023-04-01T03:43:32;2.77;;;2.63;;
5813;SDS011;2933;52.302;8.134;2023-04-01T03:48:33;2.03;;;1.93;;
5813;SDS011;2933;52.302;8.134;2023-04-01T03:53:36;2.60;;;2.40;;
5813;SDS011;2933;52.302;8.134;2023-04-01T03:58:38;2.53;;;2.43;;
5813;SDS011;2933;52.302;8.134;2023-04-01T04:03:40;2.63;;;2.53;;
5813;SDS011;2933;52.302;8.134;2023-04-01T04:08:42;3.63;;;2.30;;
5813;SDS011;2933;52.302;8.134;2023-04-01T04:13:45;2.20;;;2.00;;
5813;SDS011;2933;52.302;8.134;2023-04-01T04:18:47;2.03;;;1.93;;
5813;SDS011;2933;52.302;8.134;2023-04-01T04:23:50;2.20;;;2.10;;
5813;SDS011;2933;52.302;8.134;2023-04-01T04:28:53;1.43;;;1.43;;
5813;SDS011;2933;52.302;8.134;2023-04-01T04:33:54;2.07;;;1.87;;
5813;SDS011;2933;52.302;8.134;2023-04-01T04:38:57;1.70;;;1.67;;
5813;SDS011;2933;52.302;8.134;2023-04-01T04:44:01;1.80;;;1.73;;
5813;SDS011;2933;52.302;8.134;2023-04-01T04:49:03;1.87;;;1.77;;
5813;SDS011;2933;52.302;8.134;2023-04-01T04:54:06;2.33;;;2.23;;
5813;SDS011;2933;52.302;8.134;2023-04-01T04:59:08;1.40;;;1.40;;
5813;SDS011;2933;52.302;8.134;2023-04-01T05:04:11;1.30;;;1.30;;
5813;SDS011;2933;52.302;8.134;2023-04-01T05:09:14;2.00;;;1.90;;
5813;SDS011;2933;52.302;8.134;2023-04-01T05:14:15;1.90;;;1.43;;
5813;SDS011;2933;52.302;8.134;2023-04-01T05:19:17;1.53;;;1.53;;
5813;SDS011;2933;52.302;8.134;2023-04-01T05:24:20;1.60;;;1.50;;
5813;SDS011;2933;52.302;8.134;2023-04-01T05:29:21;1.10;;;1.10;;
5813;SDS011;2933;52.302;8.134;2023-04-01T05:34:23;1.50;;;1.50;;
5813;SDS011;2933;52.302;8.134;2023-04-01T05:39:26;1.30;;;1.30;;
5813;SDS011;2933;52.302;8.134;2023-04-01T05:44:28;2.07;;;2.00;;
5813;SDS011;2933;52.302;8.134;2023-04-01T05:49:30;1.60;;;1.60;;
5813;SDS011;2933;52.302;8.134;2023-04-01T05:54:33;5.93;;;1.47;;
5813;SDS011;2933;52.302;8.134;2023-04-01T05:59:35;1.57;;;1.47;;
5813;SDS011;2933;52.302;8.134;2023-04-01T06:04:37;1.50;;;1.50;;
5813;SDS011;2933;52.302;8.134;2023-04-01T06:09:41;2.00;;;1.90;;
5813;SDS011;2933;52.302;8.134;2023-04-01T06:14:45;3.07;;;2.97;;
5813;SDS011;2933;52.302;8.134;2023-04-01T06:19:59;2.77;;;2.67;;
5813;SDS011;2933;52.302;8.134;2023-04-01T06:25:16;3.57;;;3.37;;
5813;SDS011;2933;52.302;8.134;2023-04-01T06:30:34;4.37;;;4.07;;
5813;SDS011;2933;52.302;8.134;2023-04-01T06:35:45;4.37;;;3.60;;
5813;SDS011;2933;52.302;8.134;2023-04-01T06:46:35;3.60;;;3.40;;
5813;SDS011;2933;52.302;8.134;2023-04-01T06:51:47;4.40;;;4.00;;
5813;SDS011;2933;52.302;8.134;2023-04-01T06:56:59;4.13;;;3.93;;
5813;SDS011;2933;52.302;8.134;2023-04-01T07:02:12;4.30;;;4.00;;
5813;SDS011;2933;52.302;8.134;2023-04-01T07:07:24;3.93;;;3.73;;
5813;SDS011;2933;52.302;8.134;2023-04-01T07:12:38;3.70;;;3.50;;
5813;SDS011;2933;52.302;8.134;2023-04-01T07:17:45;3.10;;;3.00;;
5813;SDS011;2933;52.302;8.134;2023-04-01T07:22:50;2.83;;;2.73;;
5813;SDS011;2933;52.302;8.134;2023-04-01T07:27:56;3.70;;;3.50;;
5813;SDS011;2933;52.302;8.134;2023-04-01T07:33:02;2.87;;;2.77;;
5813;SDS011;2933;52.302;8.134;2023-04-01T07:38:14;4.00;;;3.60;;
5813;SDS011;2933;52.302;8.134;2023-04-01T07:43:35;3.83;;;3.63;;
5813;SDS011;2933;52.302;8.134;2023-04-01T07:48:48;4.17;;;3.87;;
5813;SDS011;2933;52.302;8.134;2023-04-01T07:53:58;3.63;;;3.40;;
5813;SDS011;2933;52.302;8.134;2023-04-01T07:59:10;3.60;;;3.40;;
5813;SDS011;2933;52.302;8.134;2023-04-01T08:04:23;3.80;;;3.50;;
5813;SDS011;2933;52.302;8.134;2023-04-01T08:09:36;4.40;;;4.10;;
5813;SDS011;2933;52.302;8.134;2023-04-01T08:14:51;3.87;;;3.50;;
5813;SDS011;2933;52.302;8.134;2023-04-01T08:20:01;3.83;;;3.63;;
5813;SDS011;2933;52.302;8.134;2023-04-01T08:25:16;3.63;;;3.40;;
5813;SDS011;2933;52.302;8.134;2023-04-01T08:30:24;4.10;;;3.80;;
5813;SDS011;2933;52.302;8.134;2023-04-01T08:35:28;5.53;;;5.07;;
5813;SDS011;2933;52.302;8.134;2023-04-01T08:40:39;4.40;;;4.10;;
5813;SDS011;2933;52.302;8.134;2023-04-01T08:46:00;4.50;;;4.10;;
5813;SDS011;2933;52.302;8.134;2023-04-01T08:51:31;3.80;;;3.60;;
5813;SDS011;2933;52.302;8.134;2023-04-01T08:56:50;2.97;;;2.70;;
5813;SDS011;2933;52.302;8.134;2023-04-01T09:02:14;3.43;;;3.23;;
5813;SDS011;2933;52.302;8.134;2023-04-01T09:07:36;3.40;;;3.20;;
5813;SDS011;2933;52.302;8.134;2023-04-01T09:24:13;3.10;;;2.90;;
5813;SDS011;2933;52.302;8.134;2023-04-01T09:29:30;2.17;;;2.07;;
5813;SDS011;2933;52.302;8.134;2023-04-01T09:34:52;2.57;;;2.47;;
5813;SDS011;2933;52.302;8.134;2023-04-01T09:40:02;2.87;;;2.77;;
5813;SDS011;2933;52.302;8.134;2023-04-01T09:45:20;3.13;;;2.93;;
5813;SDS011;2933;52.302;8.134;2023-04-01T09:50:42;3.93;;;3.63;;
5813;SDS011;2933;52.302;8.134;2023-04-01T09:55:59;3.97;;;3.77;;
5813;SDS011;2933;52.302;8.134;2023-04-01T10:12:46;4.07;;;3.77;;
5813;SDS011;2933;52.302;8.134;2023-04-01T10:18:03;4.93;;;3.90;;
5813;SDS011;2933;52.302;8.134;2023-04-01T10:23:34;4.70;;;4.30;;
5813;SDS011;2933;52.302;8.134;2023-04-01T10:28:58;4.90;;;4.50;;
5813;SDS011;2933;52.302;8.134;2023-04-01T10:56:48;4.77;;;4.40;;
5813;SDS011;2933;52.302;8.134;2023-04-01T11:07:59;3.57;;;3.37;;
5813;SDS011;2933;52.302;8.134;2023-04-01T11:13:31;7.60;;;4.03;;
5813;SDS011;2933;52.302;8.134;2023-04-01T11:30:26;3.77;;;3.47;;
5813;SDS011;2933;52.302;8.134;2023-04-01T11:35:46;4.07;;;3.77;;
5813;SDS011;2933;52.302;8.134;2023-04-01T11:40:58;4.47;;;4.07;;
5813;SDS011;2933;52.302;8.134;2023-04-01T11:46:12;5.97;;;4.30;;
5813;SDS011;2933;52.302;8.134;2023-04-01T11:51:27;4.33;;;4.00;;
5813;SDS011;2933;52.302;8.134;2023-04-01T11:56:39;4.47;;;3.60;;
5813;SDS011;2933;52.302;8.134;2023-04-01T12:01:57;4.27;;;3.97;;
5813;SDS011;2933;52.302;8.134;2023-04-01T12:07:05;7.10;;;4.10;;
5813;SDS011;2933;52.302;8.134;2023-04-01T12:12:18;4.10;;;3.80;;
5813;SDS011;2933;52.302;8.134;2023-04-01T12:17:31;4.27;;;3.97;;
5813;SDS011;2933;52.302;8.134;2023-04-01T12:22:43;3.90;;;3.67;;
5813;SDS011;2933;52.302;8.134;2023-04-01T12:28:03;3.50;;;3.30;;
5813;SDS011;2933;52.302;8.134;2023-04-01T12:33:24;4.30;;;3.90;;
5813;SDS011;2933;52.302;8.134;2023-04-01T12:38:44;4.97;;;4.17;;
5813;SDS011;2933;52.302;8.134;2023-04-01T12:44:17;4.00;;;3.63;;
5813;SDS011;2933;52.302;8.134;2023-04-01T12:49:44;2.73;;;2.37;;
5813;SDS011;2933;52.302;8.134;2023-04-01T12:55:09;3.20;;;3.00;;
5813;SDS011;2933;52.302;8.134;2023-04-01T13:00:39;2.87;;;2.77;;
5813;SDS011;2933;52.302;8.134;2023-04-01T13:05:56;2.47;;;2.27;;
5813;SDS011;2933;52.302;8.134;2023-04-01T13:11:24;2.50;;;2.30;;
5813;SDS011;2933;52.302;8.134;2023-04-01T13:16:36;2.37;;;2.27;;
5813;SDS011;2933;52.302;8.134;2023-04-01T13:21:46;2.43;;;2.33;;
5813;SDS011;2933;52.302;8.134;2023-04-01T13:26:56;2.53;;;2.43;;
5813;SDS011;2933;52.302;8.134;2023-04-01T13:32:06;3.80;;;3.50;;
5813;SDS011;2933;52.302;8.134;2023-04-01T13:37:24;2.70;;;2.50;;
5813;SDS011;2933;52.302;8.134;2023-04-01T13:42:39;2.50;;;2.40;;
5813;SDS011;2933;52.302;8.134;2023-04-01T13:48:02;2.37;;;2.20;;
5813;SDS011;2933;52.302;8.134;2023-04-01T13:59:21;2.43;;;2.33;;
5813;SDS011;2933;52.302;8.134;2023-04-01T14:04:50;2.60;;;2.50;;
5813;SDS011;2933;52.302;8.134;2023-04-01T14:15:36;1.53;;;1.43;;
5813;SDS011;2933;52.302;8.134;2023-04-01T14:20:48;1.20;;;1.20;;
5813;SDS011;2933;52.302;8.134;2023-04-01T14:26:09;2.10;;;2.00;;
5813;SDS011;2933;52.302;8.134;2023-04-01T14:43:01;1.70;;;1.60;;
5813;SDS011;2933;52.302;8.134;2023-04-01T14:48:16;1.60;;;1.50;;
5813;SDS011;2933;52.302;8.134;2023-04-01T14:53:26;1.30;;;1.30;;
5813;SDS011;2933;52.302;8.134;2023-04-01T14:58:40;2.10;;;2.00;;
5813;SDS011;2933;52.302;8.134;2023-04-01T15:03:47;1.90;;;1.80;;
5813;SDS011;2933;52.302;8.134;2023-04-01T15:08:54;2.23;;;2.13;;
5813;SDS011;2933;52.302;8.134;2023-04-01T15:14:19;2.10;;;2.00;;
5813;SDS011;2933;52.302;8.134;2023-04-01T15:19:37;1.60;;;1.60;;
5813;SDS011;2933;52.302;8.134;2023-04-01T15:24:47;0.90;;;0.90;;
5813;SDS011;2933;52.302;8.134;2023-04-01T15:35:37;1.47;;;1.37;;
5813;SDS011;2933;52.302;8.134;2023-04-01T15:40:45;1.03;;;1.03;;
5813;SDS011;2933;52.302;8.134;2023-04-01T15:45:54;4.00;;;1.00;;
5813;SDS011;2933;52.302;8.134;2023-04-01T15:51:11;0.97;;;0.97;;
5813;SDS011;2933;52.302;8.134;2023-04-01T15:56:36;1.03;;;0.80;;
5813;SDS011;2933;52.302;8.134;2023-04-01T16:01:53;0.90;;;0.90;;
5813;SDS011;2933;52.302;8.134;2023-04-01T16:07:06;0.80;;;0.80;;
5813;SDS011;2933;52.302;8.134;2023-04-01T16:12:19;0.70;;;0.70;;
5813;SDS011;2933;52.302;8.134;2023-04-01T16:17:44;0.70;;;0.70;;
5813;SDS011;2933;52.302;8.134;2023-04-01T16:22:58;0.80;;;0.80;;
5813;SDS011;2933;52.302;8.134;2023-04-01T16:28:09;0.63;;;0.63;;
5813;SDS011;2933;52.302;8.134;2023-04-01T16:33:22;1.20;;;1.20;;
5813;SDS011;2933;52.302;8.134;2023-04-01T16:38:34;1.10;;;1.10;;
5813;SDS011;2933;52.302;8.134;2023-04-01T16:43:41;1.17;;;1.13;;
5813;SDS011;2933;52.302;8.134;2023-04-01T16:48:52;0.90;;;0.90;;
5813;SDS011;2933;52.302;8.134;2023-04-01T16:54:02;0.90;;;0.90;;
5813;SDS011;2933;52.302;8.134;2023-04-01T16:59:13;1.00;;;0.90;;
5813;SDS011;2933;52.302;8.134;2023-04-01T17:04:21;1.10;;;1.10;;
5813;SDS011;2933;52.302;8.134;2023-04-01T17:09:34;1.13;;;1.13;;
5813;SDS011;2933;52.302;8.134;2023-04-01T17:14:51;1.20;;;1.20;;
5813;SDS011;2933;52.302;8.134;2023-04-01T17:25:37;1.37;;;1.10;;
5813;SDS011;2933;52.302;8.134;2023-04-01T17:30:49;1.00;;;1.00;;
5813;SDS011;2933;52.302;8.134;2023-04-01T17:36:04;0.90;;;0.90;;
5813;SDS011;2933;52.302;8.134;2023-04-01T17:41:13;0.90;;;0.90;;
5813;SDS011;2933;52.302;8.134;2023-04-01T17:46:28;0.83;;;0.83;;
5813;SDS011;2933;52.302;8.134;2023-04-01T17:51:43;1.30;;;1.30;;
5813;SDS011;2933;52.302;8.134;2023-04-01T17:56:54;1.20;;;1.20;;
5813;SDS011;2933;52.302;8.134;2023-04-01T18:02:11;0.90;;;0.90;;
5813;SDS011;2933;52.302;8.134;2023-04-01T18:07:32;1.00;;;1.00;;
5813;SDS011;2933;52.302;8.134;2023-04-01T18:12:52;0.90;;;0.90;;
5813;SDS011;2933;52.302;8.134;2023-04-01T18:18:18;0.97;;;0.97;;
5813;SDS011;2933;52.302;8.134;2023-04-01T18:23:41;2.30;;;1.47;;
5813;SDS011;2933;52.302;8.134;2023-04-01T18:28:48;1.60;;;1.50;;
5813;SDS011;2933;52.302;8.134;2023-04-01T18:33:56;1.40;;;1.40;;
5813;SDS011;2933;52.302;8.134;2023-04-01T18:39:07;1.83;;;1.73;;
5813;SDS011;2933;52.302;8.134;2023-04-01T18:44:19;1.50;;;1.50;;
5813;SDS011;2933;52.302;8.134;2023-04-01T18:49:29;2.27;;;2.07;;
5813;SDS011;2933;52.302;8.134;2023-04-01T18:54:44;2.10;;;2.00;;
5813;SDS011;2933;52.302;8.134;2023-04-01T18:59:52;2.03;;;1.93;;
5813;SDS011;2933;52.302;8.134;2023-04-01T19:05:00;2.23;;;2.00;;
5813;SDS011;2933;52.302;8.134;2023-04-01T19:10:13;1.60;;;1.50;;
5813;SDS011;2933;52.302;8.134;2023-04-01T19:15:22;1.60;;;1.60;;
5813;SDS011;2933;52.302;8.134;2023-04-01T19:20:32;1.80;;;1.70;;
5813;SDS011;2933;52.302;8.134;2023-04-01T19:25:40;4.43;;;1.73;;
5813;SDS011;2933;52.302;8.134;2023-04-01T19:30:51;1.80;;;1.70;;
5813;SDS011;2933;52.302;8.134;2023-04-01T19:35:59;2.50;;;1.70;;
5813;SDS011;2933;52.302;8.134;2023-04-01T19:41:12;1.53;;;1.53;;
5813;SDS011;2933;52.302;8.134;2023-04-01T19:46:26;1.40;;;1.30;;
5813;SDS011;2933;52.302;8.134;2023-04-01T19:51:33;1.07;;;1.07;;
5813;SDS011;2933;52.302;8.134;2023-04-01T19:56:41;1.57;;;1.57;;
5813;SDS011;2933;52.302;8.134;2023-04-01T20:01:49;1.37;;;1.37;;
5813;SDS011;2933;52.302;8.134;2023-04-01T20:06:59;1.17;;;1.17;;
5813;SDS011;2933;52.302;8.134;2023-04-01T20:12:11;1.23;;;1.23;;
5813;SDS011;2933;52.302;8.134;2023-04-01T20:17:26;1.60;;;1.50;;
5813;SDS011;2933;52.302;8.134;2023-04-01T20:22:36;1.20;;;1.20;;
5813;SDS011;2933;52.302;8.134;2023-04-01T20:27:56;1.10;;;1.10;;
5813;SDS011;2933;52.302;8.134;2023-04-01T20:33:09;1.27;;;1.27;;
5813;SDS011;2933;52.302;8.134;2023-04-01T20:44:10;1.10;;;1.10;;
5813;SDS011;2933;52.302;8.134;2023-04-01T20:49:16;1.17;;;1.17;;
5813;SDS011;2933;52.302;8.134;2023-04-01T20:54:35;2.10;;;1.57;;
5813;SDS011;2933;52.302;8.134;2023-04-01T20:59:54;1.87;;;1.77;;
5813;SDS011;2933;52.302;8.134;2023-04-01T21:05:23;4.70;;;2.20;;
5813;SDS011;2933;52.302;8.134;2023-04-01T21:10:38;1.50;;;1.50;;
5813;SDS011;2933;52.302;8.134;2023-04-01T21:15:48;3.50;;;1.50;;
5813;SDS011;2933;52.302;8.134;2023-04-01T21:21:00;1.70;;;1.60;;
5813;SDS011;2933;52.302;8.134;2023-04-01T21:26:29;2.17;;;2.07;;
5813;SDS011;2933;52.302;8.134;2023-04-01T21:31:45;1.40;;;1.40;;
5813;SDS011;2933;52.302;8.134;2023-04-01T21:36:59;1.90;;;1.73;;
5813;SDS011;2933;52.302;8.134;2023-04-01T21:42:19;2.30;;;1.77;;
5813;SDS011;2933;52.302;8.134;2023-04-01T21:47:42;3.47;;;2.93;;
5813;SDS011;2933;52.302;8.134;2023-04-01T21:53:14;2.20;;;2.10;;
5813;SDS011;2933;52.302;8.134;2023-04-01T21:58:37;2.40;;;2.30;;
5813;SDS011;2933;52.302;8.134;2023-04-01T22:04:13;2.33;;;2.23;;
5813;SDS011;2933;52.302;8.134;2023-04-01T22:09:31;2.43;;;2.30;;
5813;SDS011;2933;52.302;8.134;2023-04-01T22:14:43;2.03;;;1.93;;
5813;SDS011;2933;52.302;8.134;2023-04-01T22:19:54;3.20;;;2.63;;
5813;SDS011;2933;52.302;8.134;2023-04-01T22:25:10;2.50;;;2.30;;
5813;SDS011;2933;52.302;8.134;2023-04-01T22:30:18;3.10;;;2.90;;
5813;SDS011;2933;52.302;8.134;2023-04-01T22:35:27;7.53;;;3.10;;
5813;SDS011;2933;52.302;8.134;2023-04-01T22:40:39;4.00;;;3.17;;
5813;SDS011;2933;52.302;8.134;2023-04-01T22:45:52;2.87;;;2.73;;
5813;SDS011;2933;52.302;8.134;2023-04-01T22:51:07;4.97;;;4.57;;
5813;SDS011;2933;52.302;8.134;2023-04-01T22:56:17;4.57;;;3.00;;
5813;SDS011;2933;52.302;8.134;2023-04-01T23:01:23;10.23;;;3.10;;
5813;SDS011;2933;52.302;8.134;2023-04-01T23:06:32;3.20;;;2.90;;
5813;SDS011;2933;52.302;8.134;2023-04-01T23:11:41;3.37;;;3.10;;
5813;SDS011;2933;52.302;8.134;2023-04-01T23:16:48;3.30;;;3.00;;
5813;SDS011;2933;52.302;8.134;2023-04-01T23:22:01;5.10;;;4.60;;
5813;SDS011;2933;52.302;8.134;2023-04-01T23:27:10;5.40;;;4.23;;
5813;SDS011;2933;52.302;8.134;2023-04-01T23:32:18;4.60;;;4.20;;
5813;SDS011;2933;52.302;8.134;2023-04-01T23:37:23;4.97;;;4.47;;
5813;SDS011;2933;52.302;8.134;2023-04-01T23:42:26;9.90;;;5.30;;
5813;SDS011;2933;52.302;8.134;2023-04-01T23:47:30;5.00;;;4.00;;
5813;SDS011;2933;52.302;8.134;2023-04-01T23:52:36;6.83;;;4.77;;
5813;SDS011;2933;52.302;8.134;2023-04-01T23:57:42;4.27;;;3.87;;
